sensor_id;sensor_type;location;lat;lon;timestamp;pressure;altitude;pressure_sealevel;temperature;humidity
63090;BME280;49174;43.198;27.824;2023-04-19T04:54:38;101022.72;;;11.43;100.00
63090;BME280;49174;43.198;27.824;2023-04-19T04:57:04;101016.06;;;11.46;100.00
63090;BME280;49174;43.198;27.824;2023-04-19T04:59:29;101019.63;;;11.46;100.00
63090;BME280;49174;43.198;27.824;2023-04-19T05:01:55;101029.06;;;11.35;100.00
63090;BME280;49174;43.198;27.824;2023-04-19T05:04:20;101026.81;;;11.39;100.00
63090;BME280;49174;43.198;27.824;2023-04-19T05:06:45;101026.19;;;11.37;100.00
63090;BME280;49174;43.198;27.824;2023-04-19T05:09:11;101028.25;;;11.35;100.00
63090;BME280;49174;43.198;27.824;2023-04-19T05:11:37;101031.59;;;11.37;100.00
63090;BME280;49174;43.198;27.824;2023-04-19T05:14:03;101029.91;;;11.36;100.00
63090;BME280;49174;43.198;27.824;2023-04-19T05:16:29;101028.63;;;11.32;100.00
63090;BME280;49174;43.198;27.824;2023-04-19T05:18:54;101028.63;;;11.32;100.00
63090;BME280;49174;43.198;27.824;2023-04-19T05:21:21;101034.53;;;11.42;100.00
63090;BME280;49174;43.198;27.824;2023-04-19T05:23:46;101029.13;;;11.42;100.00
63090;BME280;49174;43.198;27.824;2023-04-19T05:26:13;101035.81;;;11.46;100.00
63090;BME280;49174;43.198;27.824;2023-04-19T05:28:41;101040.00;;;11.49;100.00
63090;BME280;49174;43.198;27.824;2023-04-19T05:31:10;101038.31;;;11.48;100.00
63090;BME280;49174;43.198;27.824;2023-04-19T05:33:36;101037.94;;;11.51;100.00
63090;BME280;49174;43.198;27.824;2023-04-19T05:36:01;101036.72;;;11.53;100.00
63090;BME280;49174;43.198;27.824;2023-04-19T05:38:27;101040.66;;;11.51;100.00
63090;BME280;49174;43.198;27.824;2023-04-19T05:40:52;101043.78;;;11.54;100.00
63090;BME280;49174;43.198;27.824;2023-04-19T05:43:18;101044.44;;;11.56;100.00
63090;BME280;49174;43.198;27.824;2023-04-19T05:45:43;101045.91;;;11.59;100.00
63090;BME280;49174;43.198;27.824;2023-04-19T05:48:10;101048.25;;;11.69;100.00
63090;BME280;49174;43.198;27.824;2023-04-19T05:50:35;101052.19;;;11.66;100.00
63090;BME280;49174;43.198;27.824;2023-04-19T05:53:01;101047.69;;;11.73;100.00
63090;BME280;49174;43.198;27.824;2023-04-19T05:55:27;101056.88;;;11.79;100.00
63090;BME280;49174;43.198;27.824;2023-04-19T05:57:53;101052.34;;;11.86;100.00
63090;BME280;49174;43.198;27.824;2023-04-19T06:00:18;101045.25;;;11.85;100.00
63090;BME280;49174;43.198;27.824;2023-04-19T06:02:44;101051.06;;;11.82;100.00
63090;BME280;49174;43.198;27.824;2023-04-19T06:05:10;101048.63;;;11.87;100.00
63090;BME280;49174;43.198;27.824;2023-04-19T06:07:35;101043.44;;;11.92;100.00
63090;BME280;49174;43.198;27.824;2023-04-19T06:10:01;101045.66;;;11.82;100.00
63090;BME280;49174;43.198;27.824;2023-04-19T06:12:26;101049.34;;;11.74;100.00
63090;BME280;49174;43.198;27.824;2023-04-19T06:14:53;101059.88;;;11.62;100.00
63090;BME280;49174;43.198;27.824;2023-04-19T06:17:19;101054.59;;;11.54;100.00
63090;BME280;49174;43.198;27.824;2023-04-19T06:19:52;101047.13;;;11.56;100.00
63090;BME280;49174;43.198;27.824;2023-04-19T06:22:19;101052.63;;;11.70;100.00
63090;BME280;49174;43.198;27.824;2023-04-19T06:24:48;101057.31;;;11.82;100.00
63090;BME280;49174;43.198;27.824;2023-04-19T06:27:14;101049.00;;;11.84;100.00
63090;BME280;49174;43.198;27.824;2023-04-19T06:29:41;101053.34;;;11.78;100.00
63090;BME280;49174;43.198;27.824;2023-04-19T06:32:07;101057.63;;;11.73;100.00
63090;BME280;49174;43.198;27.824;2023-04-19T06:34:32;101060.13;;;11.68;100.00
63090;BME280;49174;43.198;27.824;2023-04-19T06:36:58;101066.00;;;11.78;100.00
63090;BME280;49174;43.198;27.824;2023-04-19T06:39:24;101067.28;;;11.82;100.00
63090;BME280;49174;43.198;27.824;2023-04-19T06:41:49;101072.34;;;11.92;100.00
63090;BME280;49174;43.198;27.824;2023-04-19T06:44:15;101069.59;;;11.85;100.00
63090;BME280;49174;43.198;27.824;2023-04-19T06:46:40;101072.59;;;11.97;100.00
63090;BME280;49174;43.198;27.824;2023-04-19T06:49:06;101078.94;;;12.11;100.00
63090;BME280;49174;43.198;27.824;2023-04-19T06:51:32;101075.03;;;12.20;100.00
63090;BME280;49174;43.198;27.824;2023-04-19T06:53:58;101075.66;;;12.15;100.00
63090;BME280;49174;43.198;27.824;2023-04-19T06:56:40;101078.25;;;12.02;100.00
63090;BME280;49174;43.198;27.824;2023-04-19T06:59:16;101085.06;;;11.91;100.00
63090;BME280;49174;43.198;27.824;2023-04-19T07:01:43;101077.38;;;11.95;100.00
63090;BME280;49174;43.198;27.824;2023-04-19T07:04:09;101081.50;;;11.91;100.00
63090;BME280;49174;43.198;27.824;2023-04-19T07:06:35;101074.88;;;11.93;100.00
63090;BME280;49174;43.198;27.824;2023-04-19T07:09:02;101083.66;;;12.02;100.00
63090;BME280;49174;43.198;27.824;2023-04-19T07:11:28;101073.28;;;12.05;100.00
63090;BME280;49174;43.198;27.824;2023-04-19T07:13:54;101086.25;;;12.17;100.00
63090;BME280;49174;43.198;27.824;2023-04-19T07:16:19;101085.84;;;12.20;100.00
63090;BME280;49174;43.198;27.824;2023-04-19T07:18:45;101087.06;;;12.11;100.00
63090;BME280;49174;43.198;27.824;2023-04-19T07:21:10;101090.81;;;12.10;100.00
63090;BME280;49174;43.198;27.824;2023-04-19T07:23:36;101099.09;;;12.08;100.00
63090;BME280;49174;43.198;27.824;2023-04-19T07:26:02;101097.84;;;12.04;100.00
63090;BME280;49174;43.198;27.824;2023-04-19T07:28:28;101096.13;;;11.96;100.00
63090;BME280;49174;43.198;27.824;2023-04-19T07:30:54;101097.91;;;11.89;100.00
63090;BME280;49174;43.198;27.824;2023-04-19T07:33:19;101100.63;;;11.89;100.00
63090;BME280;49174;43.198;27.824;2023-04-19T07:35:45;101095.88;;;11.70;100.00
63090;BME280;49174;43.198;27.824;2023-04-19T07:38:11;101115.84;;;11.69;100.00
63090;BME280;49174;43.198;27.824;2023-04-19T07:40:37;101107.91;;;11.67;100.00
63090;BME280;49174;43.198;27.824;2023-04-19T07:43:02;101106.00;;;11.61;100.00
63090;BME280;49174;43.198;27.824;2023-04-19T07:45:29;101118.53;;;11.69;100.00
63090;BME280;49174;43.198;27.824;2023-04-19T07:47:55;101113.31;;;11.67;100.00
63090;BME280;49174;43.198;27.824;2023-04-19T07:50:21;101107.72;;;11.69;100.00
63090;BME280;49174;43.198;27.824;2023-04-19T07:52:46;101118.09;;;11.65;100.00
63090;BME280;49174;43.198;27.824;2023-04-19T07:55:12;101116.91;;;11.74;100.00
63090;BME280;49174;43.198;27.824;2023-04-19T07:57:37;101113.88;;;11.84;100.00
63090;BME280;49174;43.198;27.824;2023-04-19T08:00:03;101121.34;;;11.82;100.00
63090;BME280;49174;43.198;27.824;2023-04-19T08:02:29;101115.38;;;11.87;100.00
63090;BME280;49174;43.198;27.824;2023-04-19T08:04:55;101123.13;;;11.90;100.00
63090;BME280;49174;43.198;27.824;2023-04-19T08:07:22;101130.75;;;11.86;100.00
63090;BME280;49174;43.198;27.824;2023-04-19T08:09:48;101119.56;;;11.89;100.00
63090;BME280;49174;43.198;27.824;2023-04-19T08:12:14;101125.59;;;11.91;100.00
63090;BME280;49174;43.198;27.824;2023-04-19T08:14:40;101132.31;;;11.95;100.00
63090;BME280;49174;43.198;27.824;2023-04-19T08:17:06;101129.81;;;12.00;100.00
63090;BME280;49174;43.198;27.824;2023-04-19T08:19:32;101130.72;;;12.07;100.00
63090;BME280;49174;43.198;27.824;2023-04-19T08:21:57;101127.38;;;12.05;100.00
63090;BME280;49174;43.198;27.824;2023-04-19T08:24:23;101138.59;;;12.02;100.00
63090;BME280;49174;43.198;27.824;2023-04-19T08:26:48;101134.41;;;12.00;100.00
63090;BME280;49174;43.198;27.824;2023-04-19T08:29:20;101138.56;;;11.96;100.00
63090;BME280;49174;43.198;27.824;2023-04-19T08:31:46;101140.22;;;11.97;100.00
63090;BME280;49174;43.198;27.824;2023-04-19T08:34:12;101133.97;;;11.96;100.00
63090;BME280;49174;43.198;27.824;2023-04-19T08:36:37;101133.16;;;11.96;100.00
63090;BME280;49174;43.198;27.824;2023-04-19T08:39:03;101135.63;;;11.97;100.00
63090;BME280;49174;43.198;27.824;2023-04-19T08:41:31;101129.00;;;12.00;100.00
63090;BME280;49174;43.198;27.824;2023-04-19T08:43:57;101136.94;;;12.01;100.00
63090;BME280;49174;43.198;27.824;2023-04-19T08:46:24;101135.25;;;12.00;100.00
63090;BME280;49174;43.198;27.824;2023-04-19T08:48:51;101134.84;;;12.03;100.00
63090;BME280;49174;43.198;27.824;2023-04-19T08:51:17;101130.34;;;12.17;100.00
63090;BME280;49174;43.198;27.824;2023-04-19T08:53:44;101132.31;;;12.30;100.00
63090;BME280;49174;43.198;27.824;2023-04-19T08:56:11;101125.09;;;12.37;100.00
63090;BME280;49174;43.198;27.824;2023-04-19T08:58:37;101129.31;;;12.46;100.00
63090;BME280;49174;43.198;27.824;2023-04-19T09:01:06;101139.31;;;12.52;100.00
63090;BME280;49174;43.198;27.824;2023-04-19T09:03:33;101132.50;;;12.57;100.00
63090;BME280;49174;43.198;27.824;2023-04-19T09:06:00;101130.00;;;12.62;100.00
63090;BME280;49174;43.198;27.824;2023-04-19T09:08:29;101133.59;;;12.69;100.00
63090;BME280;49174;43.198;27.824;2023-04-19T09:11:00;101128.22;;;12.82;100.00
63090;BME280;49174;43.198;27.824;2023-04-19T09:13:29;101136.19;;;12.90;100.00
63090;BME280;49174;43.198;27.824;2023-04-19T09:15:55;101131.97;;;12.81;100.00
63090;BME280;49174;43.198;27.824;2023-04-19T09:18:26;101134.66;;;12.81;100.00
63090;BME280;49174;43.198;27.824;2023-04-19T09:20:53;101137.19;;;12.83;100.00
63090;BME280;49174;43.198;27.824;2023-04-19T09:23:23;101129.47;;;12.86;100.00
63090;BME280;49174;43.198;27.824;2023-04-19T09:25:58;101137.84;;;12.98;100.00
63090;BME280;49174;43.198;27.824;2023-04-19T09:28:29;101135.56;;;12.95;100.00
63090;BME280;49174;43.198;27.824;2023-04-19T09:30:55;101126.53;;;12.81;100.00
63090;BME280;49174;43.198;27.824;2023-04-19T09:33:35;101127.94;;;12.64;100.00
63090;BME280;49174;43.198;27.824;2023-04-19T09:36:05;101138.16;;;12.68;100.00
63090;BME280;49174;43.198;27.824;2023-04-19T09:38:48;101129.06;;;12.83;100.00
63090;BME280;49174;43.198;27.824;2023-04-19T09:41:13;101129.47;;;12.80;100.00
63090;BME280;49174;43.198;27.824;2023-04-19T09:43:39;101130.53;;;12.85;100.00
63090;BME280;49174;43.198;27.824;2023-04-19T09:46:05;101131.97;;;12.81;100.00
63090;BME280;49174;43.198;27.824;2023-04-19T09:48:30;101130.44;;;12.65;100.00
63090;BME280;49174;43.198;27.824;2023-04-19T09:50:58;101131.53;;;12.71;100.00
63090;BME280;49174;43.198;27.824;2023-04-19T09:53:25;101130.88;;;12.69;100.00
63090;BME280;49174;43.198;27.824;2023-04-19T09:55:51;101133.00;;;12.80;100.00
63090;BME280;49174;43.198;27.824;2023-04-19T09:58:18;101128.41;;;12.81;100.00
63090;BME280;49174;43.198;27.824;2023-04-19T10:00:45;101132.81;;;12.82;100.00
63090;BME280;49174;43.198;27.824;2023-04-19T10:03:15;101137.00;;;12.84;100.00
63090;BME280;49174;43.198;27.824;2023-04-19T10:05:42;101130.94;;;12.89;100.00
63090;BME280;49174;43.198;27.824;2023-04-19T10:08:11;101135.34;;;12.90;100.00
63090;BME280;49174;43.198;27.824;2023-04-19T10:10:38;101141.38;;;12.85;100.00
63090;BME280;49174;43.198;27.824;2023-04-19T10:13:07;101129.72;;;12.91;100.00
63090;BME280;49174;43.198;27.824;2023-04-19T10:15:35;101133.06;;;13.00;100.00
63090;BME280;49174;43.198;27.824;2023-04-19T10:18:04;101125.00;;;13.13;100.00
63090;BME280;49174;43.198;27.824;2023-04-19T10:20:59;101121.28;;;13.21;100.00
63090;BME280;49174;43.198;27.824;2023-04-19T10:23:26;101124.59;;;13.23;98.00
63090;BME280;49174;43.198;27.824;2023-04-19T10:25:56;101125.63;;;13.15;96.48
63090;BME280;49174;43.198;27.824;2023-04-19T10:28:22;101121.88;;;13.10;98.07
63090;BME280;49174;43.198;27.824;2023-04-19T10:31:03;101133.13;;;13.20;99.10
63090;BME280;49174;43.198;27.824;2023-04-19T10:33:30;101129.25;;;13.29;98.28
63090;BME280;49174;43.198;27.824;2023-04-19T10:35:59;101134.03;;;13.27;97.08
63090;BME280;49174;43.198;27.824;2023-04-19T10:38:36;101127.09;;;13.18;97.33
63090;BME280;49174;43.198;27.824;2023-04-19T10:41:02;101138.13;;;13.16;98.56
63090;BME280;49174;43.198;27.824;2023-04-19T10:43:29;101138.19;;;13.30;100.00
63090;BME280;49174;43.198;27.824;2023-04-19T10:46:07;101140.28;;;13.28;99.10
63090;BME280;49174;43.198;27.824;2023-04-19T10:48:35;101141.47;;;13.25;97.39
63090;BME280;49174;43.198;27.824;2023-04-19T10:51:16;101133.78;;;13.22;95.86
63090;BME280;49174;43.198;27.824;2023-04-19T10:56:08;101136.25;;;13.17;99.04
63090;BME280;49174;43.198;27.824;2023-04-19T11:01:43;101129.66;;;13.33;99.38
63090;BME280;49174;43.198;27.824;2023-04-19T11:09:30;101141.84;;;13.09;95.34
63090;BME280;49174;43.198;27.824;2023-04-19T11:12:01;101144.13;;;12.99;96.46
63090;BME280;49174;43.198;27.824;2023-04-19T11:14:30;101134.50;;;12.89;98.10
63090;BME280;49174;43.198;27.824;2023-04-19T11:16:56;101141.59;;;12.97;100.00
63090;BME280;49174;43.198;27.824;2023-04-19T11:19:22;101147.66;;;12.99;98.50
63090;BME280;49174;43.198;27.824;2023-04-19T11:21:48;101142.19;;;12.86;97.00
63090;BME280;49174;43.198;27.824;2023-04-19T11:24:14;101139.88;;;12.83;97.51
63090;BME280;49174;43.198;27.824;2023-04-19T11:26:44;101148.00;;;12.76;98.75
63090;BME280;49174;43.198;27.824;2023-04-19T11:29:11;101142.50;;;12.63;96.00
63090;BME280;49174;43.198;27.824;2023-04-19T11:31:36;101144.34;;;12.56;96.82
63090;BME280;49174;43.198;27.824;2023-04-19T11:34:03;101147.66;;;12.51;98.14
63090;BME280;49174;43.198;27.824;2023-04-19T11:36:30;101150.97;;;12.46;96.67
63090;BME280;49174;43.198;27.824;2023-04-19T11:38:56;101150.06;;;12.39;97.68
63090;BME280;49174;43.198;27.824;2023-04-19T11:41:21;101155.88;;;12.36;98.48
63090;BME280;49174;43.198;27.824;2023-04-19T11:43:47;101148.81;;;12.35;98.56
63090;BME280;49174;43.198;27.824;2023-04-19T11:46:12;101146.91;;;12.29;98.49
63090;BME280;49174;43.198;27.824;2023-04-19T11:48:49;101140.84;;;12.27;98.62
63090;BME280;49174;43.198;27.824;2023-04-19T11:51:15;101137.50;;;12.25;99.71
63090;BME280;49174;43.198;27.824;2023-04-19T11:53:41;101139.81;;;12.28;100.00
63090;BME280;49174;43.198;27.824;2023-04-19T11:56:07;101140.88;;;12.34;100.00
63090;BME280;49174;43.198;27.824;2023-04-19T11:58:44;101138.22;;;12.40;100.00
63090;BME280;49174;43.198;27.824;2023-04-19T12:01:16;101138.00;;;12.42;100.00
63090;BME280;49174;43.198;27.824;2023-04-19T12:03:45;101132.59;;;12.42;100.00
63090;BME280;49174;43.198;27.824;2023-04-19T12:06:16;101131.78;;;12.48;99.32
63090;BME280;49174;43.198;27.824;2023-04-19T12:08:44;101132.25;;;12.51;98.98
63090;BME280;49174;43.198;27.824;2023-04-19T12:11:12;101127.44;;;12.53;98.97
63090;BME280;49174;43.198;27.824;2023-04-19T12:13:38;101126.47;;;12.61;99.00
63090;BME280;49174;43.198;27.824;2023-04-19T12:16:08;101124.00;;;12.66;100.00
63090;BME280;49174;43.198;27.824;2023-04-19T12:18:48;101124.25;;;12.78;97.83
63090;BME280;49174;43.198;27.824;2023-04-19T12:21:30;101122.41;;;12.85;98.37
63090;BME280;49174;43.198;27.824;2023-04-19T12:24:00;101124.53;;;12.96;99.46
63090;BME280;49174;43.198;27.824;2023-04-19T12:26:29;101106.22;;;13.05;99.16
63090;BME280;49174;43.198;27.824;2023-04-19T12:28:56;101108.13;;;13.18;98.79
63090;BME280;49174;43.198;27.824;2023-04-19T12:31:22;101113.81;;;13.36;95.99
63090;BME280;49174;43.198;27.824;2023-04-19T12:33:48;101107.38;;;13.51;95.09
63090;BME280;49174;43.198;27.824;2023-04-19T12:36:14;101111.53;;;13.73;96.53
63090;BME280;49174;43.198;27.824;2023-04-19T12:38:39;101108.63;;;13.88;94.37
63090;BME280;49174;43.198;27.824;2023-04-19T12:41:05;101102.78;;;13.98;92.32
63090;BME280;49174;43.198;27.824;2023-04-19T12:43:31;101106.09;;;14.13;91.25
63090;BME280;49174;43.198;27.824;2023-04-19T12:45:57;101106.44;;;14.37;90.46
63090;BME280;49174;43.198;27.824;2023-04-19T12:48:23;101101.72;;;14.84;91.53
63090;BME280;49174;43.198;27.824;2023-04-19T12:50:49;101091.41;;;14.99;86.03
63090;BME280;49174;43.198;27.824;2023-04-19T12:53:15;101083.75;;;15.21;87.47
63090;BME280;49174;43.198;27.824;2023-04-19T12:55:41;101084.28;;;15.61;86.07
63090;BME280;49174;43.198;27.824;2023-04-19T12:58:17;101090.41;;;15.82;82.17
63090;BME280;49174;43.198;27.824;2023-04-19T13:00:45;101091.44;;;16.06;84.98
63090;BME280;49174;43.198;27.824;2023-04-19T13:03:11;101086.09;;;16.18;82.34
63090;BME280;49174;43.198;27.824;2023-04-19T13:05:37;101088.00;;;16.36;81.43
63090;BME280;49174;43.198;27.824;2023-04-19T13:08:02;101085.97;;;16.49;80.15
63090;BME280;49174;43.198;27.824;2023-04-19T13:10:28;101083.69;;;16.28;76.03
63090;BME280;49174;43.198;27.824;2023-04-19T13:12:54;101080.13;;;16.27;78.99
63090;BME280;49174;43.198;27.824;2023-04-19T13:15:20;101085.34;;;16.11;79.05
63090;BME280;49174;43.198;27.824;2023-04-19T13:17:46;101081.22;;;16.01;79.28
63090;BME280;49174;43.198;27.824;2023-04-19T13:20:11;101082.47;;;15.80;76.69
63090;BME280;49174;43.198;27.824;2023-04-19T13:22:37;101079.00;;;15.67;78.18
63090;BME280;49174;43.198;27.824;2023-04-19T13:25:03;101079.13;;;15.53;78.53
63090;BME280;49174;43.198;27.824;2023-04-19T13:27:28;101076.03;;;15.43;77.21
63090;BME280;49174;43.198;27.824;2023-04-19T13:29:54;101081.06;;;15.46;79.81
63090;BME280;49174;43.198;27.824;2023-04-19T13:32:21;101077.13;;;15.42;79.53
63090;BME280;49174;43.198;27.824;2023-04-19T13:34:46;101070.59;;;15.43;82.74
63090;BME280;49174;43.198;27.824;2023-04-19T13:37:12;101070.22;;;15.39;81.27
63090;BME280;49174;43.198;27.824;2023-04-19T13:39:38;101069.47;;;15.32;78.75
63090;BME280;49174;43.198;27.824;2023-04-19T13:42:04;101063.16;;;15.32;80.45
63090;BME280;49174;43.198;27.824;2023-04-19T13:44:29;101062.78;;;15.28;80.99
63090;BME280;49174;43.198;27.824;2023-04-19T13:46:55;101060.38;;;15.13;76.56
63090;BME280;49174;43.198;27.824;2023-04-19T13:49:20;101057.94;;;15.05;78.47
63090;BME280;49174;43.198;27.824;2023-04-19T13:51:46;101055.09;;;14.93;77.88
63090;BME280;49174;43.198;27.824;2023-04-19T13:54:11;101065.97;;;14.87;80.19
63090;BME280;49174;43.198;27.824;2023-04-19T13:56:37;101059.75;;;14.80;79.09
63090;BME280;49174;43.198;27.824;2023-04-19T13:59:02;101062.72;;;14.71;79.51
63090;BME280;49174;43.198;27.824;2023-04-19T14:01:28;101054.19;;;14.61;79.75
63090;BME280;49174;43.198;27.824;2023-04-19T14:03:53;101052.72;;;14.59;80.77
63090;BME280;49174;43.198;27.824;2023-04-19T14:06:19;101053.38;;;14.54;80.54
63090;BME280;49174;43.198;27.824;2023-04-19T14:08:44;101047.31;;;14.45;77.68
63090;BME280;49174;43.198;27.824;2023-04-19T14:11:10;101049.44;;;14.37;79.21
63090;BME280;49174;43.198;27.824;2023-04-19T14:13:36;101053.22;;;14.36;80.75
63090;BME280;49174;43.198;27.824;2023-04-19T14:16:02;101052.81;;;14.32;83.14
63090;BME280;49174;43.198;27.824;2023-04-19T14:18:27;101052.81;;;14.32;81.49
63090;BME280;49174;43.198;27.824;2023-04-19T14:20:53;101054.69;;;14.31;82.13
63090;BME280;49174;43.198;27.824;2023-04-19T14:23:19;101051.97;;;14.31;83.05
63090;BME280;49174;43.198;27.824;2023-04-19T14:25:45;101049.69;;;14.35;84.42
63090;BME280;49174;43.198;27.824;2023-04-19T14:28:10;101049.88;;;14.34;83.32
63090;BME280;49174;43.198;27.824;2023-04-19T14:30:37;101045.28;;;14.34;84.22
63090;BME280;49174;43.198;27.824;2023-04-19T14:33:03;101049.91;;;14.20;81.42
63090;BME280;49174;43.198;27.824;2023-04-19T14:35:29;101051.16;;;14.18;81.21
63090;BME280;49174;43.198;27.824;2023-04-19T14:37:55;101043.25;;;14.16;82.11
63090;BME280;49174;43.198;27.824;2023-04-19T14:40:20;101045.97;;;14.16;84.31
63090;BME280;49174;43.198;27.824;2023-04-19T14:42:46;101048.88;;;14.15;83.59
63090;BME280;49174;43.198;27.824;2023-04-19T14:45:12;101045.34;;;14.14;84.28
63090;BME280;49174;43.198;27.824;2023-04-19T14:47:38;101039.09;;;14.14;84.06
63090;BME280;49174;43.198;27.824;2023-04-19T14:50:04;101040.97;;;14.13;83.52
63090;BME280;49174;43.198;27.824;2023-04-19T14:52:30;101042.00;;;14.12;85.22
63090;BME280;49174;43.198;27.824;2023-04-19T14:54:56;101040.16;;;14.13;85.23
63090;BME280;49174;43.198;27.824;2023-04-19T14:57:22;101044.13;;;14.10;83.99
63090;BME280;49174;43.198;27.824;2023-04-19T14:59:48;101039.53;;;14.04;84.59
63090;BME280;49174;43.198;27.824;2023-04-19T15:02:13;101041.19;;;14.05;85.45
63090;BME280;49174;43.198;27.824;2023-04-19T15:04:39;101048.94;;;14.01;85.55
63090;BME280;49174;43.198;27.824;2023-04-19T15:07:05;101046.00;;;14.03;86.43
63090;BME280;49174;43.198;27.824;2023-04-19T15:09:31;101051.81;;;14.06;84.86
63090;BME280;49174;43.198;27.824;2023-04-19T15:11:56;101049.13;;;14.06;85.78
63090;BME280;49174;43.198;27.824;2023-04-19T15:14:22;101053.50;;;14.01;85.99
63090;BME280;49174;43.198;27.824;2023-04-19T15:16:48;101047.69;;;13.97;85.33
63090;BME280;49174;43.198;27.824;2023-04-19T15:19:13;101058.13;;;13.94;86.48
63090;BME280;49174;43.198;27.824;2023-04-19T15:21:39;101047.06;;;13.89;85.87
63090;BME280;49174;43.198;27.824;2023-04-19T15:24:05;101049.59;;;13.83;86.29
63090;BME280;49174;43.198;27.824;2023-04-19T15:26:33;101047.94;;;13.82;86.64
63090;BME280;49174;43.198;27.824;2023-04-19T15:28:59;101045.41;;;13.88;87.13
63090;BME280;49174;43.198;27.824;2023-04-19T15:31:24;101052.47;;;13.95;88.17
63090;BME280;49174;43.198;27.824;2023-04-19T15:33:51;101057.09;;;14.01;88.27
63090;BME280;49174;43.198;27.824;2023-04-19T15:36:18;101056.22;;;14.01;86.59
63090;BME280;49174;43.198;27.824;2023-04-19T15:38:43;101057.47;;;14.05;86.90
63090;BME280;49174;43.198;27.824;2023-04-19T15:41:09;101048.50;;;14.04;86.88
63090;BME280;49174;43.198;27.824;2023-04-19T15:43:35;101044.13;;;14.03;87.70
63090;BME280;49174;43.198;27.824;2023-04-19T15:46:00;101048.28;;;14.06;87.95
63090;BME280;49174;43.198;27.824;2023-04-19T15:48:27;101047.84;;;14.09;88.29
63090;BME280;49174;43.198;27.824;2023-04-19T15:50:52;101047.84;;;14.09;87.51
63090;BME280;49174;43.198;27.824;2023-04-19T15:53:18;101048.94;;;14.01;88.01
63090;BME280;49174;43.198;27.824;2023-04-19T15:55:43;101047.91;;;13.96;86.18
63090;BME280;49174;43.198;27.824;2023-04-19T15:58:11;101046.44;;;13.93;86.96
63090;BME280;49174;43.198;27.824;2023-04-19T16:00:36;101045.19;;;13.89;86.85
63090;BME280;49174;43.198;27.824;2023-04-19T16:03:02;101049.78;;;13.89;88.17
63090;BME280;49174;43.198;27.824;2023-04-19T16:05:28;101046.22;;;13.95;88.79
63090;BME280;49174;43.198;27.824;2023-04-19T16:08:04;101046.44;;;13.93;88.85
63090;BME280;49174;43.198;27.824;2023-04-19T16:10:30;101047.91;;;13.96;89.28
63090;BME280;49174;43.198;27.824;2023-04-19T16:12:56;101047.72;;;13.91;89.12
63090;BME280;49174;43.198;27.824;2023-04-19T16:15:21;101042.88;;;13.93;88.95
63090;BME280;49174;43.198;27.824;2023-04-19T16:17:47;101042.28;;;13.91;88.97
63090;BME280;49174;43.198;27.824;2023-04-19T16:20:13;101044.16;;;13.83;88.04
63090;BME280;49174;43.198;27.824;2023-04-19T16:22:38;101040.81;;;13.88;88.13
63090;BME280;49174;43.198;27.824;2023-04-19T16:25:04;101043.34;;;13.83;87.95
63090;BME280;49174;43.198;27.824;2023-04-19T16:27:30;101030.81;;;13.75;88.57
63090;BME280;49174;43.198;27.824;2023-04-19T16:29:56;101035.41;;;13.75;89.44
63090;BME280;49174;43.198;27.824;2023-04-19T16:32:21;101039.59;;;13.77;89.72
63090;BME280;49174;43.198;27.824;2023-04-19T16:34:47;101041.47;;;13.77;90.05
63090;BME280;49174;43.198;27.824;2023-04-19T16:37:12;101041.91;;;13.74;89.05
63090;BME280;49174;43.198;27.824;2023-04-19T16:39:40;101044.81;;;13.66;88.59
63090;BME280;49174;43.198;27.824;2023-04-19T16:42:06;101047.09;;;13.62;89.85
63090;BME280;49174;43.198;27.824;2023-04-19T16:44:32;101053.16;;;13.51;89.75
63090;BME280;49174;43.198;27.824;2023-04-19T16:46:58;101057.13;;;13.41;90.76
63090;BME280;49174;43.198;27.824;2023-04-19T16:49:23;101060.22;;;13.45;91.17
63090;BME280;49174;43.198;27.824;2023-04-19T16:51:50;101056.06;;;13.43;90.09
63090;BME280;49174;43.198;27.824;2023-04-19T16:54:15;101064.59;;;13.39;90.69
